Saint-Pie, Canada
Current Conditions -  °F | °C
As of 6:13 AM on Friday 28 Nov 2014 (Local Time) from CYHU Reporting Station
Light Snow Light Snow  
Wind Chill: 14°   Ceiling: 2200
Heat Index: 21°   Visibility: 6mi
Dew Point: 18°   Wind: 6mph
Humidity: 86%   Direction: 40°NE
Pressure: 30.08"   Gusts: NA
Location:  45.5°N, 72.9°W
Report Text: CYHU 281113Z AUTO 04005KT 6SM -SN BKN022 BKN026 OVC035 M06/M08 A3008 RMK SLP187
Loading
Personal Weather Stations






























Interactive Weather Map New forecast layout! Learn more

10-Day Weather Forecast

Advertisements
Track Severe Weather on mobile